Granite Downs, Australia
Current Conditions -  °F | °C
As of 6:00 PM on Monday 26 Jan 2015 (Local Time) from YCBP Reporting Station
Clear Clear  
Wind Chill: 82°   Ceiling: Unl
Heat Index: 82°   Visibility: NA
Dew Point: 37°   Wind: 16mph
Humidity: 20%   Direction: 190°S
Pressure: 29.88"   Gusts: NA
Location:  26.94°S, 133.49°E
Report Text: YCBP 260800Z AUTO 19014KT //// // NCD 28/03 Q1012
Loading
Personal Weather Stations






























Interactive Weather Map New forecast layout! Learn more

10-Day Weather Forecast

Advertisements
Track Severe Weather on mobile